CheckWX is a tool to help pilots better visualize weather data.  It is not intended as a substitute for an official pre-flight weather briefing.

17:42:23 UTC

SBME TAF
Macaé Airport
Macaé, Brazil
TAF SBME 180930Z 1812/1824 04005KT 9999 SCT020 TX29/1817Z TN20/1824Z BECMG 1814/1816 08010KT BECMG 1818/1820 10007KT BECMG 1820/1822 04007KT RMK PGW

Jun-18@
12:00 UTC

Jun-18 @ 12:00 UTC

Jun-18@
14:00 UTC

Jun-18 @ 14:00 UTC

TAF SBME 180930Z 1812/1824 04005KT 9999 SCT020 TX29/1817Z TN20/1824Z

Expired

Wind
  • 040° at 5 KTS
Cloud Levels
  • Scattered at 2,000' AGL

Jun-18@
14:00 UTC

Jun-18 @ 14:00 UTC

Jun-18@
18:00 UTC

Jun-18 @ 18:00 UTC

BECMG 1814/1816 08010KT

Becoming

Becoming Conditions expected by Tue, Jun 18, 2019 @ 16:00 UTC

Wind
  • 080° at 10 KTS
Cloud Levels
  • Scattered at 2,000' AGL

Jun-18@
18:00 UTC

Jun-18 @ 18:00 UTC

Jun-18@
20:00 UTC

Jun-18 @ 20:00 UTC

BECMG 1818/1820 10007KT

Becoming

Becoming Conditions expected by Tue, Jun 18, 2019 @ 20:00 UTC

Wind
  • 100° at 7 KTS
Cloud Levels
  • Scattered at 2,000' AGL

Jun-18@
20:00 UTC

Jun-18 @ 20:00 UTC

Jun-19@
00:00 UTC

Jun-19 @ 00:00 UTC

BECMG 1820/1822 04007KT RMK PGW

Becoming

Becoming Conditions expected by Tue, Jun 18, 2019 @ 22:00 UTC

Wind
  • 040° at 7 KTS
Cloud Levels
  • Scattered at 2,000' AGL